Terminal Aerodrome Forecast
Issued by NWS Sterling, VA

Home | Current Version | Previous Version | Text Only | Print | Product List | Glossary On
Versions: 1 2 3 4 5 6 7 8 9 10 11 12
000
FTUS41 KLWX 251120
TAFMRB
TAF
KMRB 251120Z 2512/2612 19005KT P6SM BKN050
     FM251700 25007KT P6SM OVC060
     FM252300 VRB03KT P6SM SCT250
     FM260500 VRB03KT P6SM BKN110
     FM260800 VRB03KT P6SM SCT090=

USA.gov is the U.S. government's official web portal to all federal, state and local government web resources and services.